Map

Track Data

SID SEASON NUMBER BASIN SUBBASIN NAME ISO_TIME NATURE LAT LON WMO_WIND WMO_PRES WMO_AGENCY TRACK_TYPE DIST2LAND LANDFALL IFLAG USA_AGENCY USA_ATCF_ID USA_LAT USA_LON USA_RECORD USA_STATUS USA_WIND USA_PRES USA_SSHS USA_R34_NE USA_R34_SE USA_R34_SW USA_R34_NW USA_R50_NE USA_R50_SE USA_R50_SW USA_R50_NW USA_R64_NE USA_R64_SE USA_R64_SW USA_R64_NW USA_POCI USA_ROCI USA_RMW USA_EYE TOKYO_LAT TOKYO_LON TOKYO_GRADE TOKYO_WIND TOKYO_PRES TOKYO_R50_DIR TOKYO_R50_LONG TOKYO_R50_SHORT TOKYO_R30_DIR TOKYO_R30_LONG TOKYO_R30_SHORT TOKYO_LAND CMA_LAT CMA_LON CMA_CAT CMA_WIND CMA_PRES HKO_LAT HKO_LON HKO_CAT HKO_WIND HKO_PRES NEWDELHI_LAT NEWDELHI_LON NEWDELHI_GRADE NEWDELHI_WIND NEWDELHI_PRES NEWDELHI_CI NEWDELHI_DP NEWDELHI_POCI REUNION_LAT REUNION_LON REUNION_TYPE REUNION_WIND REUNION_PRES REUNION_TNUM REUNION_CI REUNION_RMW REUNION_R34_NE REUNION_R34_SE REUNION_R34_SW REUNION_R34_NW REUNION_R50_NE REUNION_R50_SE REUNION_R50_SW REUNION_R50_NW REUNION_R64_NE REUNION_R64_SE REUNION_R64_SW REUNION_R64_NW BOM_LAT BOM_LON BOM_TYPE BOM_WIND BOM_PRES BOM_TNUM BOM_CI BOM_RMW BOM_R34_NE BOM_R34_SE BOM_R34_SW BOM_R34_NW BOM_R50_NE BOM_R50_SE BOM_R50_SW BOM_R50_NW BOM_R64_NE BOM_R64_SE BOM_R64_SW BOM_R64_NW BOM_ROCI BOM_POCI BOM_EYE BOM_POS_METHOD BOM_PRES_METHOD NADI_LAT NADI_LON NADI_CAT NADI_WIND NADI_PRES WELLINGTON_LAT WELLINGTON_LON WELLINGTON_WIND WELLINGTON_PRES DS824_LAT DS824_LON DS824_STAGE DS824_WIND DS824_PRES TD9636_LAT TD9636_LON TD9636_STAGE TD9636_WIND TD9636_PRES TD9635_LAT TD9635_LON TD9635_WIND TD9635_PRES TD9635_ROCI NEUMANN_LAT NEUMANN_LON NEUMANN_CLASS NEUMANN_WIND NEUMANN_PRES MLC_LAT MLC_LON MLC_CLASS MLC_WIND MLC_PRES USA_GUST BOM_GUST BOM_GUST_PER REUNION_GUST REUNION_GUST_PER USA_SEAHGT USA_SEARAD_NE USA_SEARAD_SE USA_SEARAD_SW USA_SEARAD_NW STORM_SPEED STORM_DIR
1914330N10127 1914 41 WP MM NOT_NAMED 1914-11-26 10:00:00 NR 10.1000 127.400 main 165 165 __________O___ -1 10.1000 127.400 3 8 85
1914330N10127 1914 41 WP MM NOT_NAMED 1914-11-26 12:00:00 NR 10.1209 127.657 main 192 192 __________P___ -1 10.1209 127.657 3 6 86
1914330N10127 1914 41 WP MM NOT_NAMED 1914-11-26 15:00:00 NR 10.1379 127.920 main 212 212 __________P___ -1 10.1379 127.920 3 2 90
1914330N10127 1914 41 WP MM NOT_NAMED 1914-11-26 18:00:00 NR 10.1191 127.872 main 212 150 __________P___ -1 10.1191 127.872 3 6 261
1914330N10127 1914 41 WP MM NOT_NAMED 1914-11-26 21:00:00 NR 10.0425 127.325 main 150 133 __________P___ -1 10.0425 127.325 3 13 262
1914330N10127 1914 41 WP MM NOT_NAMED 1914-11-26 22:00:00 NR 10.0000 127.000 main 123 46 __________O___ -1 10.0000 127.000 4 24 263
1914330N10127 1914 41 WP MM NOT_NAMED 1914-11-27 00:00:00 NR 9.88685 126.118 main 46 0 __________P___ -1 9.88685 126.118 4 31 263
1914330N10127 1914 41 WP MM NOT_NAMED 1914-11-27 03:00:00 NR 9.66930 124.381 main 0 0 __________P___ -1 9.66930 124.381 4 37 263
1914330N10127 1914 41 WP MM NOT_NAMED 1914-11-27 06:00:00 NR 9.43721 122.440 main 24 31 __________P___ -1 9.43721 122.440 4 37 263
1914330N10127 1914 41 WP MM NOT_NAMED 1914-11-27 09:00:00 NR 9.24494 120.622 main 173 148 __________P___ -1 9.24494 120.622 4 35 264
1914330N10127 1914 41 WP MM NOT_NAMED 1914-11-27 10:00:00 NR 9.20000 120.100 main 141 86 __________O___ -1 9.20000 120.100 4 25 267
1914330N10127 1914 41 WP MM NOT_NAMED 1914-11-27 12:00:00 NR 9.17023 119.353 main 86 15 __________P___ -1 9.17023 119.353 4 19 270
1914330N10127 1914 41 WP MM NOT_NAMED 1914-11-27 15:00:00 NR 9.19176 118.477 main 15 0 __________P___ -1 9.19176 118.477 4 15 274
1914330N10127 1914 41 WP MM NOT_NAMED 1914-11-27 18:00:00 NR 9.26715 117.812 main 11 11 __________P___ -1 9.26715 117.812 4 12 278
1914330N10127 1914 41 WP MM NOT_NAMED 1914-11-27 21:00:00 NR 9.36670 117.269 main 55 62 __________P___ -1 9.36670 117.269 4 11 281
1914330N10127 1914 41 WP MM NOT_NAMED 1914-11-27 22:00:00 NR 9.40000 117.100 main 70 70 __________O___ -1 9.40000 117.100 4 11 277
1914330N10127 1914 41 WP MM NOT_NAMED 1914-11-28 00:00:00 NR 9.43318 116.709 main 104 104 __________P___ -1 9.43318 116.709 4 11 276
1914330N10127 1914 41 WP MM NOT_NAMED 1914-11-28 03:00:00 NR 9.48953 116.187 main 157 157 __________P___ -1 9.48953 116.187 4 10 277
1914330N10127 1914 41 WP MM NOT_NAMED 1914-11-28 06:00:00 NR 9.56211 115.712 main 208 208 __________P___ -1 9.56211 115.712 4 9 281
1914330N10127 1914 41 WP MM NOT_NAMED 1914-11-28 09:00:00 NR 9.66012 115.254 main 251 261 __________P___ -1 9.66012 115.254 4 9 283
1914330N10127 1914 41 WP MM NOT_NAMED 1914-11-28 10:00:00 NR 9.70000 115.100 main 271 271 __________O___ -1 9.70000 115.100 4 10 287
1914330N10127 1914 41 WP MM NOT_NAMED 1914-11-28 12:00:00 NR 9.80413 114.769 main 305 315 __________P___ -1 9.80413 114.769 4 10 289
1914330N10127 1914 41 WP MM NOT_NAMED 1914-11-28 15:00:00 NR 9.98591 114.274 main 364 374 __________P___ -1 9.98591 114.274 4 11 291
1914330N10127 1914 41 WP MM NOT_NAMED 1914-11-28 18:00:00 NR 10.1762 113.775 main 424 433 __________P___ -1 10.1762 113.775 4 11 290
1914330N10127 1914 41 WP MM NOT_NAMED 1914-11-28 21:00:00 NR 10.3500 113.270 main 467 447 __________P___ -1 10.3500 113.270 4 11 289
1914330N10127 1914 41 WP MM NOT_NAMED 1914-11-28 22:00:00 NR 10.4000 113.100 main 447 412 __________O___ -1 10.4000 113.100 4 10 286
1914330N10127 1914 41 WP MM NOT_NAMED 1914-11-29 00:00:00 NR 10.4936 112.758 main 412 348 __________P___ -1 10.4936 112.758 4 10 284
1914330N10127 1914 41 WP MM NOT_NAMED 1914-11-29 03:00:00 NR 10.6095 112.240 main 348 294 __________P___ -1 10.6095 112.240 4 10 281
1914330N10127 1914 41 WP MM NOT_NAMED 1914-11-29 06:00:00 NR 10.6846 111.714 main 294 245 __________P___ -1 10.6846 111.714 4 10 275
1914330N10127 1914 41 WP MM NOT_NAMED 1914-11-29 09:00:00 NR 10.7066 111.180 main 245 226 __________P___ -1 10.7066 111.180 4 11 271
1914330N10127 1914 41 WP MM NOT_NAMED 1914-11-29 10:00:00 NR 10.7000 111.000 main 226 189 __________O___ -1 10.7000 111.000 4 11 265
1914330N10127 1914 41 WP MM NOT_NAMED 1914-11-29 12:00:00 NR 10.6645 110.638 main 189 149 __________P___ -1 10.6645 110.638 4 11 261
1914330N10127 1914 41 WP MM NOT_NAMED 1914-11-29 15:00:00 NR 10.5642 110.090 main 149 124 __________P___ -1 10.5642 110.090 4 11 257
1914330N10127 1914 41 WP MM NOT_NAMED 1914-11-29 18:00:00 NR 10.4228 109.539 main 124 101 __________P___ -1 10.4228 109.539 4 11 254
1914330N10127 1914 41 WP MM NOT_NAMED 1914-11-29 21:00:00 NR 10.2574 108.985 main 101 95 __________P___ -1 10.2574 108.985 4 11 253
1914330N10127 1914 41 WP MM NOT_NAMED 1914-11-29 22:00:00 NR 10.2000 108.800 main 95 __________O___ -1 10.2000 108.800 4 11 252

Digital Typhoon Data and Search

About IBTrACS Database

This database is a web-friendly format of International Best Track Archive for Climate Stewardship (IBTrACS), a global best track data archive curated by NOAA dating back to 1842.

Updated: 2021-10-08